Time;durP1;ratioP1;P1;durP2;ratioP2;P2;SDS_P1;SDS_P2;PMS_P1;PMS_P2;Temp;Humidity;BMP_temperature;BMP_pressure;BME280_temperature;BME280_humidity;BME280_pressure;Samples;Min_cycle;Max_cycle;Signal;HPM_P1;HPM_P2
2023/08/03 00:00:14;;;;;;;6.50;2.13;;;19.60;99.90;;;;;;5023251;28;20568;-69
2023/08/03 00:02:40;;;;;;;6.33;2.27;;;19.50;99.90;;;;;;5022616;28;20167;-69
2023/08/03 00:05:06;;;;;;;10.90;2.63;;;19.40;99.90;;;;;;5025304;28;20262;-68
2023/08/03 00:07:32;;;;;;;3.57;1.80;;;19.50;99.90;;;;;;5024077;28;20179;-69
2023/08/03 00:09:58;;;;;;;5.77;2.20;;;19.50;99.90;;;;;;5022291;28;20454;-68
2023/08/03 00:12:23;;;;;;;4.23;1.90;;;19.60;99.90;;;;;;5022084;28;20456;-69
2023/08/03 00:14:50;;;;;;;4.50;1.80;;;19.50;99.90;;;;;;5023852;28;20175;-68
2023/08/03 00:17:15;;;;;;;5.20;1.87;;;19.60;99.90;;;;;;5024634;28;20167;-68
2023/08/03 00:19:41;;;;;;;8.23;2.77;;;19.60;99.90;;;;;;5023602;28;20477;-69
2023/08/03 00:22:08;;;;;;;5.93;1.90;;;19.60;99.90;;;;;;5024197;28;20214;-69
2023/08/03 00:24:33;;;;;;;4.47;2.10;;;19.60;99.90;;;;;;5023697;28;20174;-69
2023/08/03 00:26:59;;;;;;;5.50;1.93;;;19.60;99.90;;;;;;5021962;28;20783;-69
2023/08/03 00:29:24;;;;;;;5.20;2.00;;;19.60;99.90;;;;;;5022410;28;20540;-68
2023/08/03 00:31:50;;;;;;;3.57;1.80;;;19.50;99.90;;;;;;5023109;28;20228;-69
2023/08/03 00:34:15;;;;;;;6.80;2.20;;;19.50;99.90;;;;;;5023836;28;20238;-69
2023/08/03 00:36:41;;;;;;;4.67;2.10;;;19.50;99.90;;;;;;5021899;28;20191;-68
2023/08/03 00:39:06;;;;;;;5.10;2.10;;;19.60;99.90;;;;;;5022578;28;20192;-69
2023/08/03 00:41:32;;;;;;;8.90;2.93;;;19.60;99.90;;;;;;5021622;28;20536;-68
2023/08/03 00:43:58;;;;;;;10.03;2.30;;;19.40;99.90;;;;;;5024701;28;20258;-69
2023/08/03 00:46:24;;;;;;;3.93;1.97;;;19.50;99.90;;;;;;5022701;28;20497;-69
2023/08/03 00:48:50;;;;;;;4.03;2.13;;;19.30;99.90;;;;;;5025488;28;20195;-69
2023/08/03 00:51:15;;;;;;;7.70;2.97;;;19.30;99.90;;;;;;5022838;28;20195;-68
2023/08/03 00:53:44;;;;;;;7.80;1.93;;;19.20;99.90;;;;;;5022395;28;20174;-69
2023/08/03 00:56:09;;;;;;;2.33;1.70;;;19.20;99.90;;;;;;5022639;28;20218;-68
2023/08/03 00:58:35;;;;;;;4.03;1.80;;;19.20;99.90;;;;;;5023973;28;20407;-69
2023/08/03 01:01:01;;;;;;;6.23;2.40;;;19.20;99.90;;;;;;5020493;28;20183;-69
2023/08/03 01:03:26;;;;;;;7.33;2.57;;;19.20;99.90;;;;;;5022612;28;20183;-68
2023/08/03 01:05:52;;;;;;;6.03;2.63;;;19.20;99.90;;;;;;5024125;28;20708;-69
2023/08/03 01:08:18;;;;;;;4.40;2.20;;;19.10;99.90;;;;;;5021373;28;20179;-69
2023/08/03 01:10:43;;;;;;;8.43;2.37;;;19.10;99.90;;;;;;5024010;28;20587;-69
2023/08/03 01:13:09;;;;;;;7.53;2.33;;;19.10;99.90;;;;;;5021706;28;20172;-68
2023/08/03 01:15:34;;;;;;;8.37;2.40;;;19.10;99.90;;;;;;5024228;28;20163;-68
2023/08/03 01:18:00;;;;;;;6.20;2.50;;;19.10;99.90;;;;;;5023805;28;20208;-68
2023/08/03 01:20:27;;;;;;;6.67;2.53;;;19.20;99.90;;;;;;5022234;28;20195;-68
2023/08/03 01:22:52;;;;;;;7.33;2.87;;;19.10;99.90;;;;;;5023090;28;20602;-69
2023/08/03 01:25:18;;;;;;;5.40;2.47;;;19.00;99.90;;;;;;5021411;28;20453;-68
2023/08/03 01:27:47;;;;;;;4.47;1.90;;;19.00;99.90;;;;;;5021840;28;20187;-68
2023/08/03 01:30:12;;;;;;;10.40;2.43;;;19.00;99.90;;;;;;5022757;28;20204;-69
2023/08/03 01:32:38;;;;;;;5.40;2.10;;;19.10;99.90;;;;;;5023882;28;20420;-68
2023/08/03 01:35:06;;;;;;;5.80;2.27;;;19.20;99.90;;;;;;5022154;28;20633;-68
2023/08/03 01:37:34;;;;;;;4.33;2.20;;;19.20;99.90;;;;;;5021926;28;20446;-68
2023/08/03 01:40:00;;;;;;;6.77;2.40;;;19.10;99.90;;;;;;5022638;28;20442;-69
2023/08/03 01:42:25;;;;;;;7.53;2.40;;;19.20;99.90;;;;;;5024158;28;20422;-69
2023/08/03 01:44:51;;;;;;;9.40;3.50;;;19.10;99.90;;;;;;5023800;28;20175;-69
2023/08/03 01:47:16;;;;;;;7.40;1.97;;;19.10;99.90;;;;;;5029060;28;20171;-69
2023/08/03 01:49:42;;;;;;;6.03;2.37;;;19.00;99.90;;;;;;5026310;28;20211;-69
2023/08/03 01:52:07;;;;;;;5.53;2.07;;;19.00;99.90;;;;;;5026330;28;20175;-70
2023/08/03 01:54:33;;;;;;;6.27;1.80;;;19.00;99.90;;;;;;5025140;28;20175;-69
2023/08/03 01:56:59;;;;;;;5.30;2.00;;;19.00;99.90;;;;;;5027713;28;20644;-69
2023/08/03 01:59:24;;;;;;;4.93;1.70;;;19.00;99.90;;;;;;5027332;28;20688;-70
2023/08/03 02:01:50;;;;;;;4.03;2.03;;;19.00;99.90;;;;;;5027434;28;20649;-69
2023/08/03 02:04:15;;;;;;;5.53;1.67;;;18.90;99.90;;;;;;5024407;28;20520;-69
2023/08/03 02:06:41;;;;;;;4.03;1.80;;;18.90;99.90;;;;;;5026711;28;20177;-69
2023/08/03 02:09:06;;;;;;;5.40;1.97;;;18.90;99.90;;;;;;5053305;22;20207;-70
2023/08/03 02:11:34;;;;;;;7.37;1.83;;;18.80;99.90;;;;;;5064665;28;20202;-70
2023/08/03 02:14:00;;;;;;;4.87;2.07;;;18.80;99.90;;;;;;5066627;28;20509;-69
2023/08/03 02:16:25;;;;;;;5.63;1.90;;;18.90;99.90;;;;;;5066023;28;20400;-70
2023/08/03 02:18:51;;;;;;;9.43;2.77;;;18.80;99.90;;;;;;5064419;28;20486;-70
2023/08/03 02:21:17;;;;;;;6.03;1.87;;;18.90;99.90;;;;;;5049059;28;20530;-69
2023/08/03 02:23:42;;;;;;;4.10;1.90;;;18.80;99.90;;;;;;5045366;28;20167;-70
2023/08/03 02:26:08;;;;;;;5.13;2.67;;;18.80;99.90;;;;;;5043858;28;20229;-70
2023/08/03 02:28:34;;;;;;;8.03;2.03;;;18.80;99.90;;;;;;5047104;28;20201;-70
2023/08/03 02:30:59;;;;;;;6.77;2.53;;;18.60;99.90;;;;;;5042443;28;20203;-69
2023/08/03 02:33:25;;;;;;;6.50;2.30;;;18.70;99.90;;;;;;5045990;28;20178;-70
2023/08/03 02:35:50;;;;;;;4.60;1.73;;;18.70;99.90;;;;;;5043942;28;20172;-69
2023/08/03 02:38:16;;;;;;;7.17;2.30;;;18.70;99.90;;;;;;5045797;28;20542;-70
2023/08/03 02:40:42;;;;;;;4.00;1.63;;;18.70;99.90;;;;;;5043675;28;20237;-70
2023/08/03 02:43:07;;;;;;;8.50;2.23;;;18.70;99.90;;;;;;5046769;28;20170;-69
2023/08/03 02:45:33;;;;;;;6.20;2.50;;;18.70;99.90;;;;;;5044069;28;20170;-70
2023/08/03 02:47:58;;;;;;;4.83;2.03;;;18.60;99.90;;;;;;5044646;28;20266;-69
2023/08/03 02:50:24;;;;;;;4.03;2.10;;;18.60;99.90;;;;;;5049294;28;20203;-70
2023/08/03 02:52:49;;;;;;;11.80;3.13;;;18.60;99.90;;;;;;5043884;28;20651;-70
2023/08/03 02:55:16;;;;;;;6.43;2.17;;;18.60;99.90;;;;;;5044522;28;20217;-70
2023/08/03 02:57:42;;;;;;;4.97;1.90;;;18.70;99.90;;;;;;5045300;28;20534;-70
2023/08/03 03:00:09;;;;;;;8.30;2.53;;;18.60;99.90;;;;;;5046584;28;20430;-70
2023/08/03 03:02:36;;;;;;;6.13;2.30;;;18.50;99.90;;;;;;5044711;28;20778;-70
2023/08/03 03:05:01;;;;;;;6.90;2.33;;;18.60;99.90;;;;;;5044966;28;20406;-70
2023/08/03 03:07:27;;;;;;;5.30;2.20;;;18.70;99.90;;;;;;5046071;28;20412;-69
2023/08/03 03:09:53;;;;;;;9.87;2.43;;;18.60;99.90;;;;;;5043165;28;20458;-70
2023/08/03 03:12:18;;;;;;;6.23;2.20;;;18.50;99.90;;;;;;5044889;28;20185;-69
2023/08/03 03:14:44;;;;;;;4.27;1.80;;;18.40;99.90;;;;;;5043174;28;20287;-70
2023/08/03 03:17:09;;;;;;;8.50;2.23;;;18.40;99.90;;;;;;5045648;28;20255;-70
2023/08/03 03:19:35;;;;;;;6.10;1.90;;;18.30;99.90;;;;;;5044528;28;20281;-69
2023/08/03 03:22:00;;;;;;;10.90;2.90;;;18.30;99.90;;;;;;5048900;28;20220;-70
2023/08/03 03:24:26;;;;;;;5.97;2.40;;;18.40;99.90;;;;;;5043003;28;20183;-69
2023/08/03 03:26:51;;;;;;;8.53;2.13;;;18.30;99.90;;;;;;5043786;28;20187;-69
2023/08/03 03:29:17;;;;;;;5.67;1.90;;;18.30;99.90;;;;;;5045377;28;20202;-69
2023/08/03 03:31:42;;;;;;;4.83;1.87;;;18.20;99.90;;;;;;5044496;28;20536;-70
2023/08/03 03:34:08;;;;;;;6.80;2.77;;;18.40;99.90;;;;;;5046058;28;20603;-70
2023/08/03 03:36:33;;;;;;;6.20;2.77;;;18.30;99.90;;;;;;5043087;28;20626;-70
2023/08/03 03:38:59;;;;;;;8.47;2.40;;;18.20;99.90;;;;;;5045929;28;20174;-69
2023/08/03 03:41:24;;;;;;;14.83;2.40;;;18.20;99.90;;;;;;5043175;28;20578;-70
2023/08/03 03:43:50;;;;;;;5.83;1.93;;;18.30;99.90;;;;;;5045011;28;20178;-70
2023/08/03 03:46:15;;;;;;;7.13;2.53;;;18.20;99.90;;;;;;5042637;28;20213;-70
2023/08/03 03:48:41;;;;;;;8.13;2.20;;;18.20;99.90;;;;;;5044304;28;20635;-70
2023/08/03 03:51:06;;;;;;;9.90;2.37;;;18.20;99.90;;;;;;5044239;28;20673;-70
2023/08/03 03:53:32;;;;;;;5.03;1.80;;;18.20;99.90;;;;;;5045371;28;20179;-70
2023/08/03 03:55:57;;;;;;;8.80;2.87;;;18.30;99.90;;;;;;5042715;28;20244;-70
2023/08/03 03:58:23;;;;;;;10.93;2.80;;;18.10;99.90;;;;;;5043483;28;20576;-71
2023/08/03 04:00:48;;;;;;;6.53;2.33;;;18.20;99.90;;;;;;5042178;28;20249;-71
2023/08/03 04:03:14;;;;;;;9.87;2.37;;;18.20;99.90;;;;;;5044761;28;20187;-70
2023/08/03 04:05:39;;;;;;;9.43;1.97;;;18.20;99.90;;;;;;5043819;28;20179;-70
2023/08/03 04:08:05;;;;;;;6.60;1.90;;;18.20;99.90;;;;;;5041550;28;20178;-70
2023/08/03 04:10:31;;;;;;;6.57;2.27;;;18.20;99.90;;;;;;5043669;28;20290;-69
2023/08/03 04:12:57;;;;;;;8.33;2.37;;;18.20;99.90;;;;;;5043569;28;20522;-69
2023/08/03 04:15:23;;;;;;;5.30;1.80;;;18.20;99.90;;;;;;5044519;28;20504;-71
2023/08/03 04:17:49;;;;;;;6.07;2.00;;;18.30;99.90;;;;;;5041975;28;20233;-71
2023/08/03 04:20:16;;;;;;;7.20;2.20;;;18.20;99.90;;;;;;5047503;28;20436;-69
2023/08/03 04:22:42;;;;;;;3.17;1.20;;;18.20;99.90;;;;;;5043949;28;20405;-70
2023/08/03 04:25:08;;;;;;;5.10;2.00;;;18.20;99.90;;;;;;5042101;28;20905;-69
2023/08/03 04:27:33;;;;;;;4.60;1.50;;;18.20;99.90;;;;;;5043932;28;20423;-69
2023/08/03 04:29:59;;;;;;;5.77;1.73;;;18.20;99.90;;;;;;5039842;28;20971;-69
2023/08/03 04:32:25;;;;;;;4.10;1.50;;;18.20;99.90;;;;;;5044628;28;20202;-70
2023/08/03 04:34:50;;;;;;;5.00;1.80;;;18.30;99.90;;;;;;5041403;28;20186;-70
2023/08/03 04:37:16;;;;;;;4.43;1.47;;;18.20;99.90;;;;;;5042764;28;20250;-70
2023/08/03 04:39:41;;;;;;;3.40;1.73;;;18.30;99.90;;;;;;5042529;28;20195;-70
2023/08/03 04:42:07;;;;;;;3.50;1.10;;;18.30;99.90;;;;;;5044124;28;20175;-69
2023/08/03 04:44:33;;;;;;;2.73;1.00;;;18.40;99.90;;;;;;5041305;28;20174;-69
2023/08/03 04:46:58;;;;;;;3.33;1.43;;;18.30;99.90;;;;;;5041794;28;20164;-70
2023/08/03 04:49:25;;;;;;;5.10;1.60;;;18.20;99.90;;;;;;5043630;28;20229;-68
2023/08/03 04:51:51;;;;;;;5.47;1.03;;;18.30;99.90;;;;;;5047085;28;20170;-69
2023/08/03 04:54:17;;;;;;;3.53;1.27;;;18.30;99.90;;;;;;5042025;28;20402;-71
2023/08/03 04:56:43;;;;;;;3.70;1.30;;;18.30;99.90;;;;;;5044235;28;20419;-70
2023/08/03 04:59:08;;;;;;;5.27;1.50;;;18.30;99.90;;;;;;5041490;28;20192;-69
2023/08/03 05:01:34;;;;;;;3.30;1.20;;;18.30;99.90;;;;;;5041000;28;20236;-70
2023/08/03 05:04:02;;;;;;;3.43;1.50;;;18.30;99.90;;;;;;5043975;28;20544;-70
2023/08/03 05:06:28;;;;;;;3.20;1.20;;;18.30;99.90;;;;;;5041284;28;20232;-69
2023/08/03 05:08:54;;;;;;;3.87;1.53;;;18.30;99.90;;;;;;5042910;28;20417;-69
2023/08/03 05:11:19;;;;;;;5.03;1.30;;;18.20;99.90;;;;;;5041081;28;20209;-69
2023/08/03 05:13:45;;;;;;;4.03;1.10;;;18.20;99.90;;;;;;5043996;28;20179;-70
2023/08/03 05:16:11;;;;;;;3.80;1.57;;;18.40;99.90;;;;;;5041875;28;20656;-70
2023/08/03 05:18:36;;;;;;;3.77;1.10;;;18.40;99.90;;;;;;5041603;28;20171;-70
2023/08/03 05:21:02;;;;;;;2.43;1.30;;;18.60;99.90;;;;;;5042587;28;20206;-70
2023/08/03 05:23:28;;;;;;;2.50;1.20;;;18.70;99.90;;;;;;5044578;28;20519;-69
2023/08/03 05:25:55;;;;;;;5.20;1.30;;;18.70;99.90;;;;;;5042702;28;20204;-70
2023/08/03 05:28:22;;;;;;;6.77;1.13;;;18.90;99.90;;;;;;5041071;28;20522;-70
2023/08/03 05:30:47;;;;;;;3.60;1.20;;;19.00;99.90;;;;;;5042232;28;20461;-68
2023/08/03 05:33:13;;;;;;;2.60;1.07;;;19.10;99.90;;;;;;5038186;28;21008;-69
2023/08/03 05:35:38;;;;;;;2.90;1.23;;;19.00;99.90;;;;;;5043232;28;20194;-69
2023/08/03 05:38:05;;;;;;;4.70;1.10;;;18.90;99.90;;;;;;5040819;28;20277;-69
2023/08/03 05:40:30;;;;;;;3.57;1.40;;;18.80;99.90;;;;;;5041371;28;20282;-69
2023/08/03 05:42:56;;;;;;;4.20;1.10;;;18.80;99.90;;;;;;5041224;28;20988;-69
2023/08/03 05:45:37;;;;;;;2.40;0.90;;;18.80;99.90;;;;;;5043464;28;20171;-70
2023/08/03 05:48:03;;;;;;;3.00;1.00;;;18.80;99.90;;;;;;5039001;28;20178;-69
2023/08/03 05:50:36;;;;;;;2.93;1.10;;;18.70;99.90;;;;;;5047066;28;20499;-69
2023/08/03 05:53:03;;;;;;;3.73;1.07;;;18.80;99.90;;;;;;5040703;28;20395;-70
2023/08/03 05:55:29;;;;;;;6.10;1.43;;;18.80;99.90;;;;;;5041966;28;20406;-70
2023/08/03 05:57:54;;;;;;;2.97;1.00;;;18.80;99.90;;;;;;5042809;28;20644;-70
2023/08/03 06:00:23;;;;;;;2.57;1.10;;;18.80;99.90;;;;;;5041218;28;20228;-70
2023/08/03 06:02:49;;;;;;;3.00;1.10;;;18.70;99.90;;;;;;5040359;28;20182;-70
2023/08/03 06:05:43;;;;;;;3.30;1.53;;;18.70;99.90;;;;;;5041491;28;20410;-69
2023/08/03 06:08:17;;;;;;;1.77;1.17;;;18.80;99.90;;;;;;5040473;28;20225;-70
2023/08/03 06:10:53;;;;;;;3.03;1.00;;;19.00;99.90;;;;;;5040100;28;20804;-70
2023/08/03 06:13:24;;;;;;;1.63;1.20;;;19.30;99.90;;;;;;5040329;28;20394;-70
2023/08/03 06:15:50;;;;;;;2.03;1.20;;;19.10;99.90;;;;;;5040282;28;20878;-69
2023/08/03 06:18:18;;;;;;;3.90;1.63;;;19.20;99.90;;;;;;5041743;28;20413;-69
2023/08/03 06:20:49;;;;;;;3.10;1.60;;;19.30;99.90;;;;;;5045780;28;20213;-69
2023/08/03 06:23:18;;;;;;;3.40;1.30;;;19.30;99.90;;;;;;5040316;28;20780;-69
2023/08/03 06:25:49;;;;;;;4.27;1.50;;;19.00;99.90;;;;;;5042909;28;20516;-70
2023/08/03 06:28:18;;;;;;;3.00;1.37;;;19.30;99.90;;;;;;5040885;28;20398;-68
2023/08/03 06:30:44;;;;;;;4.20;1.30;;;19.40;99.90;;;;;;5042476;28;20498;-69
2023/08/03 06:33:13;;;;;;;2.90;1.20;;;19.40;99.90;;;;;;5043715;28;20408;-70
2023/08/03 06:35:40;;;;;;;2.60;1.17;;;19.40;99.90;;;;;;5046899;28;20507;-70
2023/08/03 06:38:08;;;;;;;3.13;1.00;;;19.30;99.90;;;;;;5043950;28;20414;-70
2023/08/03 06:40:35;;;;;;;3.63;0.90;;;19.20;99.90;;;;;;5047513;28;20429;-69
2023/08/03 06:43:02;;;;;;;4.50;1.03;;;19.20;99.90;;;;;;5044344;28;20421;-69
2023/08/03 06:45:30;;;;;;;3.73;1.10;;;19.20;99.90;;;;;;5046627;28;20413;-69
2023/08/03 06:47:56;;;;;;;2.53;1.10;;;19.30;99.90;;;;;;5043422;28;20962;-69
2023/08/03 06:50:22;;;;;;;3.10;1.47;;;19.30;99.90;;;;;;5048427;28;20515;-69
2023/08/03 06:52:48;;;;;;;2.07;1.03;;;19.50;99.90;;;;;;5043808;28;20411;-69
2023/08/03 06:55:13;;;;;;;2.30;1.07;;;19.50;99.90;;;;;;5046143;28;20182;-69
2023/08/03 06:57:39;;;;;;;2.53;0.90;;;19.80;99.90;;;;;;5045602;28;20168;-69
2023/08/03 07:00:05;;;;;;;3.80;1.33;;;19.80;99.90;;;;;;5044374;28;20238;-69
2023/08/03 07:02:31;;;;;;;6.70;1.20;;;19.80;99.90;;;;;;5045710;28;20193;-69
2023/08/03 07:04:56;;;;;;;3.03;1.10;;;19.80;99.90;;;;;;5043520;28;20912;-70
2023/08/03 07:07:23;;;;;;;4.07;1.30;;;19.70;99.90;;;;;;5044952;28;20271;-69
2023/08/03 07:09:48;;;;;;;2.70;1.23;;;19.70;99.90;;;;;;5044279;28;20203;-69
2023/08/03 07:12:15;;;;;;;2.53;1.03;;;19.70;99.90;;;;;;5046218;28;20412;-70
2023/08/03 07:14:40;;;;;;;7.20;1.50;;;19.60;99.90;;;;;;5044362;28;20174;-70
2023/08/03 07:17:06;;;;;;;5.77;1.70;;;19.50;99.90;;;;;;5043661;28;20411;-69
2023/08/03 07:19:32;;;;;;;1.43;1.17;;;19.60;99.90;;;;;;5045746;28;20566;-70
2023/08/03 07:21:57;;;;;;;3.80;1.50;;;19.70;99.90;;;;;;5046332;28;20194;-71
2023/08/03 07:24:23;;;;;;;1.97;1.00;;;20.00;99.90;;;;;;5045194;28;20209;-71
2023/08/03 07:26:49;;;;;;;5.03;1.27;;;20.00;99.90;;;;;;5042496;28;20175;-70
2023/08/03 07:29:15;;;;;;;2.40;1.43;;;20.00;99.90;;;;;;5045272;28;20188;-71
2023/08/03 07:31:41;;;;;;;1.63;0.90;;;20.00;99.90;;;;;;5044240;28;20281;-70
2023/08/03 07:34:06;;;;;;;2.20;0.90;;;20.00;99.90;;;;;;5046007;28;20217;-71
2023/08/03 07:36:32;;;;;;;2.57;0.93;;;20.00;99.90;;;;;;5042518;28;20171;-70
2023/08/03 07:38:58;;;;;;;2.47;1.50;;;20.00;99.90;;;;;;5042511;28;20183;-71
2023/08/03 07:41:23;;;;;;;1.53;0.90;;;20.20;99.90;;;;;;5044933;28;20181;-71
2023/08/03 07:43:50;;;;;;;2.67;1.20;;;20.20;99.90;;;;;;5043834;28;20178;-70
2023/08/03 07:46:16;;;;;;;5.60;1.10;;;20.20;99.90;;;;;;5043193;28;20266;-69
2023/08/03 07:48:41;;;;;;;2.20;1.10;;;20.20;99.90;;;;;;5042309;28;20886;-70
2023/08/03 07:51:16;;;;;;;4.03;1.20;;;20.20;99.90;;;;;;5045480;28;20199;-73
2023/08/03 07:53:42;;;;;;;2.50;1.10;;;20.40;99.90;;;;;;5042868;28;20170;-70
2023/08/03 07:56:26;;;;;;;2.77;1.03;;;20.80;99.90;;;;;;5043343;28;20444;-68
2023/08/03 07:58:51;;;;;;;1.73;1.10;;;21.00;99.90;;;;;;5040642;28;20681;-70
2023/08/03 08:01:18;;;;;;;2.90;1.07;;;20.80;99.90;;;;;;5042326;28;20460;-69
2023/08/03 08:03:44;;;;;;;5.90;1.33;;;20.70;99.90;;;;;;5044671;28;20183;-69
2023/08/03 08:06:20;;;;;;;5.00;1.30;;;20.70;99.90;;;;;;5044525;28;20401;-72
2023/08/03 08:08:47;;;;;;;2.20;1.10;;;20.90;99.90;;;;;;5041722;28;20183;-71
2023/08/03 08:11:15;;;;;;;3.20;1.00;;;21.00;99.90;;;;;;5077198;22;21003;-67
2023/08/03 08:13:41;;;;;;;2.80;1.10;;;21.00;99.90;;;;;;5063825;28;20491;-67
2023/08/03 08:16:09;;;;;;;4.27;1.77;;;21.20;99.90;;;;;;5064665;28;20392;-69
2023/08/03 08:18:35;;;;;;;2.60;1.20;;;21.10;99.90;;;;;;5061136;28;20397;-67
2023/08/03 08:21:04;;;;;;;1.83;0.97;;;21.10;99.90;;;;;;5064407;28;20425;-68
2023/08/03 08:23:30;;;;;;;2.70;1.10;;;21.10;99.90;;;;;;5060748;28;20877;-70
2023/08/03 08:25:56;;;;;;;4.00;1.33;;;21.30;99.90;;;;;;5062380;28;20401;-68
2023/08/03 08:28:22;;;;;;;1.80;0.90;;;21.60;99.90;;;;;;5062772;28;20972;-67
2023/08/03 08:30:48;;;;;;;5.13;1.00;;;21.70;99.90;;;;;;5065379;28;20260;-65
2023/08/03 08:33:15;;;;;;;2.40;0.80;;;21.80;99.90;;;;;;5061251;28;20962;-66
2023/08/03 08:35:41;;;;;;;5.20;1.13;;;21.90;99.90;;;;;;5067188;28;20397;-68
2023/08/03 08:38:09;;;;;;;2.60;0.93;;;21.60;99.90;;;;;;5065599;28;20405;-70
2023/08/03 08:40:36;;;;;;;3.73;1.23;;;21.50;99.90;;;;;;5067084;28;21023;-67
2023/08/03 08:43:02;;;;;;;2.10;0.83;;;21.40;99.90;;;;;;5062124;28;20404;-69
2023/08/03 08:45:30;;;;;;;3.87;1.53;;;21.40;99.90;;;;;;5064657;28;20404;-69
2023/08/03 08:47:56;;;;;;;1.27;0.80;;;21.30;99.90;;;;;;5060516;28;20401;-69
2023/08/03 08:50:22;;;;;;;6.20;1.10;;;21.60;99.90;;;;;;5058187;28;20470;-67
2023/08/03 08:52:49;;;;;;;2.93;1.00;;;21.90;99.90;;;;;;5062568;28;20409;-69
2023/08/03 08:55:19;;;;;;;3.63;0.70;;;22.10;99.90;;;;;;5054578;28;20615;-67
2023/08/03 08:57:44;;;;;;;2.37;1.03;;;22.00;99.90;;;;;;5063751;28;20419;-67
2023/08/03 09:00:11;;;;;;;2.10;0.90;;;22.00;99.90;;;;;;5063581;28;20482;-68
2023/08/03 09:02:37;;;;;;;2.63;0.87;;;22.30;99.90;;;;;;5062530;28;20224;-68
2023/08/03 09:05:16;;;;;;;2.23;1.10;;;22.10;99.90;;;;;;5063767;28;20409;-68
2023/08/03 09:07:42;;;;;;;1.70;0.90;;;22.10;99.90;;;;;;5056275;28;20401;-68
2023/08/03 09:10:09;;;;;;;2.50;1.10;;;22.10;99.90;;;;;;5062643;28;20535;-69
2023/08/03 09:12:35;;;;;;;3.10;0.90;;;22.20;99.90;;;;;;5063879;28;20166;-68
2023/08/03 09:15:01;;;;;;;4.67;0.90;;;22.20;99.90;;;;;;5063439;28;20407;-68
2023/08/03 09:17:27;;;;;;;2.03;0.73;;;22.30;99.90;;;;;;5061642;28;20392;-67
2023/08/03 09:19:54;;;;;;;1.30;0.70;;;22.50;99.90;;;;;;5062357;28;20436;-69
2023/08/03 09:22:22;;;;;;;1.63;1.03;;;22.30;99.90;;;;;;5062997;28;20411;-69
2023/08/03 09:25:06;;;;;;;1.37;0.70;;;22.30;99.90;;;;;;5058578;28;21354;-68
2023/08/03 09:27:32;;;;;;;2.57;1.00;;;22.50;99.90;;;;;;5059090;28;20393;-67
2023/08/03 09:29:59;;;;;;;2.70;1.00;;;22.70;99.90;;;;;;5063929;28;20448;-68
2023/08/03 09:32:34;;;;;;;3.90;1.07;;;22.50;99.90;;;;;;5064232;28;20405;-68
2023/08/03 09:35:00;;;;;;;1.60;0.90;;;22.60;99.90;;;;;;5063366;28;20460;-68
2023/08/03 09:37:36;;;;;;;2.33;0.93;;;22.50;99.90;;;;;;5063327;28;20408;-69
2023/08/03 09:40:05;;;;;;;2.93;1.00;;;22.10;99.90;;;;;;5061855;28;20955;-67
2023/08/03 09:42:31;;;;;;;1.40;0.70;;;21.90;99.90;;;;;;5061577;28;20531;-69
2023/08/03 09:45:00;;;;;;;1.53;0.80;;;21.90;99.90;;;;;;5060963;28;20494;-69
2023/08/03 09:47:26;;;;;;;2.20;0.93;;;22.10;99.90;;;;;;5061697;28;20400;-68
2023/08/03 09:49:52;;;;;;;2.00;0.87;;;22.30;99.90;;;;;;5061962;28;20555;-69
2023/08/03 09:52:22;;;;;;;2.00;0.70;;;22.60;99.90;;;;;;5063857;28;20393;-69
2023/08/03 09:54:57;;;;;;;1.97;1.00;;;22.40;99.90;;;;;;5054490;28;20166;-68
2023/08/03 09:57:25;;;;;;;1.23;0.87;;;22.40;99.90;;;;;;5056867;28;20479;-69
2023/08/03 09:59:54;;;;;;;1.80;0.93;;;22.30;99.90;;;;;;5062990;28;20845;-70
2023/08/03 10:02:23;;;;;;;2.60;0.87;;;22.60;99.90;;;;;;5062710;28;20403;-68
2023/08/03 10:04:52;;;;;;;1.10;0.80;;;22.70;99.90;;;;;;5062232;28;20495;-69
2023/08/03 10:07:22;;;;;;;3.80;0.93;;;23.00;99.80;;;;;;5064349;28;20467;-68
2023/08/03 10:09:53;;;;;;;1.90;0.80;;;23.10;99.90;;;;;;5060069;28;20464;-67
2023/08/03 10:12:24;;;;;;;1.60;0.67;;;22.80;99.60;;;;;;5066981;28;20414;-68
2023/08/03 10:14:53;;;;;;;1.33;0.73;;;22.50;99.90;;;;;;5065036;28;20489;-67
2023/08/03 10:17:20;;;;;;;2.20;0.77;;;22.60;99.90;;;;;;5066442;28;20420;-68
2023/08/03 10:19:46;;;;;;;1.20;0.80;;;22.60;99.90;;;;;;5064629;28;20444;-69
2023/08/03 10:22:12;;;;;;;1.87;0.77;;;22.50;99.90;;;;;;5066891;28;20429;-69
2023/08/03 10:24:37;;;;;;;1.70;0.80;;;22.60;99.90;;;;;;5068421;28;20416;-68
2023/08/03 10:27:18;;;;;;;1.47;0.80;;;22.90;99.90;;;;;;5064394;28;20637;-68
2023/08/03 10:29:49;;;;;;;1.90;0.80;;;22.90;99.90;;;;;;5066446;28;20248;-68
2023/08/03 10:32:21;;;;;;;3.90;1.10;;;22.70;99.90;;;;;;5064801;28;20775;-68
2023/08/03 10:34:46;;;;;;;1.30;0.80;;;22.90;99.90;;;;;;5065299;28;20396;-68
2023/08/03 10:37:12;;;;;;;1.10;0.80;;;23.00;99.80;;;;;;5063955;28;20423;-68
2023/08/03 10:39:45;;;;;;;2.67;0.70;;;23.20;99.90;;;;;;5065752;28;20225;-69
2023/08/03 10:42:20;;;;;;;1.83;0.87;;;23.20;99.90;;;;;;5065463;28;20405;-69
2023/08/03 10:44:46;;;;;;;3.17;1.07;;;23.20;99.60;;;;;;5066912;28;20733;-68
2023/08/03 10:47:21;;;;;;;3.10;1.07;;;22.70;99.90;;;;;;5064121;28;20401;-68
2023/08/03 10:49:48;;;;;;;1.67;0.70;;;22.60;99.90;;;;;;5060807;28;20491;-68
2023/08/03 10:52:16;;;;;;;1.80;0.97;;;22.50;99.90;;;;;;5059720;28;20444;-67
2023/08/03 10:54:42;;;;;;;1.27;0.83;;;22.70;99.90;;;;;;5065983;28;20428;-68
2023/08/03 10:57:08;;;;;;;1.60;0.70;;;22.90;99.50;;;;;;5059451;28;20413;-68
2023/08/03 10:59:38;;;;;;;1.87;0.90;;;22.80;99.90;;;;;;5066706;28;20186;-69
2023/08/03 11:02:15;;;;;;;1.07;0.60;;;23.30;99.30;;;;;;5063859;28;20428;-68
2023/08/03 11:04:42;;;;;;;1.23;0.60;;;23.10;99.90;;;;;;5058524;28;20739;-68
2023/08/03 11:07:10;;;;;;;2.33;0.80;;;23.30;99.00;;;;;;5064619;28;20491;-68
2023/08/03 11:09:35;;;;;;;2.47;1.20;;;23.50;99.00;;;;;;5064479;28;20433;-68
2023/08/03 11:12:03;;;;;;;1.77;0.80;;;23.70;98.80;;;;;;5065195;28;20892;-68
2023/08/03 11:14:28;;;;;;;1.40;0.83;;;23.70;98.20;;;;;;5065104;28;20644;-66
2023/08/03 11:16:54;;;;;;;2.40;0.77;;;23.90;98.10;;;;;;5065293;28;20480;-68
2023/08/03 11:19:22;;;;;;;1.70;0.80;;;24.10;97.90;;;;;;5065852;28;20579;-68
2023/08/03 11:21:47;;;;;;;1.90;1.00;;;24.60;98.00;;;;;;5063192;28;20167;-68
2023/08/03 11:24:13;;;;;;;1.47;0.87;;;24.70;96.80;;;;;;5063364;28;20408;-68
2023/08/03 11:26:38;;;;;;;1.33;0.90;;;25.20;96.60;;;;;;5059923;28;20224;-67
2023/08/03 11:29:06;;;;;;;2.93;0.80;;;25.80;96.30;;;;;;5063240;28;20159;-67
2023/08/03 11:31:32;;;;;;;1.40;0.70;;;25.60;95.10;;;;;;5065629;28;20187;-68
2023/08/03 11:33:58;;;;;;;2.80;0.90;;;25.20;96.40;;;;;;5064176;28;20416;-68
2023/08/03 11:36:24;;;;;;;2.23;0.80;;;24.80;95.60;;;;;;5064493;28;20169;-69
2023/08/03 11:38:51;;;;;;;1.77;0.70;;;24.60;96.50;;;;;;5060201;28;20538;-69
2023/08/03 11:41:19;;;;;;;1.93;0.80;;;24.50;96.90;;;;;;5065366;28;20507;-68
2023/08/03 11:43:46;;;;;;;1.53;0.87;;;24.50;97.00;;;;;;5062425;28;20479;-68
2023/08/03 11:46:12;;;;;;;6.70;0.93;;;25.00;96.70;;;;;;5065832;28;20404;-69
2023/08/03 11:48:41;;;;;;;1.90;0.70;;;25.80;96.60;;;;;;5063098;28;20813;-69
2023/08/03 11:51:07;;;;;;;2.17;1.20;;;25.70;94.60;;;;;;5064403;28;20194;-72
2023/08/03 11:53:33;;;;;;;1.00;0.70;;;26.60;94.90;;;;;;5061746;28;20397;-70
2023/08/03 11:55:59;;;;;;;3.73;1.00;;;28.00;93.00;;;;;;5059404;28;20598;-69
2023/08/03 11:58:25;;;;;;;2.90;1.40;;;28.90;90.90;;;;;;5064537;28;20450;-68
2023/08/03 12:00:59;;;;;;;1.80;0.70;;;30.00;90.30;;;;;;5064671;28;20185;-70
2023/08/03 12:03:35;;;;;;;3.10;1.50;;;29.90;88.60;;;;;;5065031;28;20430;-69
2023/08/03 12:06:08;;;;;;;1.87;0.90;;;29.20;86.70;;;;;;5063396;28;20419;-71
2023/08/03 12:08:44;;;;;;;1.87;0.90;;;29.00;86.70;;;;;;5065148;28;20396;-74
2023/08/03 12:11:10;;;;;;;2.23;0.87;;;28.80;90.10;;;;;;5063049;28;20829;-72
2023/08/03 12:13:36;;;;;;;1.03;0.83;;;29.00;87.00;;;;;;5062261;28;20476;-73
2023/08/03 12:16:02;;;;;;;1.87;1.17;;;28.50;86.20;;;;;;5064829;28;20448;-73
2023/08/03 12:18:28;;;;;;;1.30;0.87;;;28.30;85.20;;;;;;5064140;28;20934;-71
2023/08/03 12:20:54;;;;;;;1.73;0.97;;;28.10;86.20;;;;;;5062118;28;20189;-71
2023/08/03 12:23:20;;;;;;;2.23;1.00;;;28.00;85.70;;;;;;5062910;28;20896;-72
2023/08/03 12:25:47;;;;;;;1.50;0.70;;;28.00;84.70;;;;;;5060928;28;20170;-73
2023/08/03 12:28:13;;;;;;;2.20;0.80;;;27.90;85.30;;;;;;5059779;28;20519;-72
2023/08/03 12:30:39;;;;;;;2.10;1.00;;;28.10;85.40;;;;;;5064261;28;20476;-69
2023/08/03 12:33:07;;;;;;;3.23;1.07;;;28.40;85.50;;;;;;5062900;28;20747;-70
2023/08/03 12:35:33;;;;;;;1.33;0.80;;;28.40;85.30;;;;;;5060995;28;20884;-69
2023/08/03 12:37:59;;;;;;;1.53;0.73;;;27.90;84.70;;;;;;5065092;28;20432;-69
2023/08/03 12:40:24;;;;;;;2.00;0.83;;;27.40;86.80;;;;;;5062234;28;20261;-69
2023/08/03 12:42:50;;;;;;;1.40;0.80;;;27.20;87.80;;;;;;5063306;28;20179;-72